sensor_id;sensor_type;location;lat;lon;timestamp;P1;durP1;ratioP1;P2;durP2;ratioP2
9960;SDS011;5021;51.506;11.320;2024-02-26T00:01:08;4.40;;;3.83;;
9960;SDS011;5021;51.506;11.320;2024-02-26T00:03:34;3.83;;;3.20;;
9960;SDS011;5021;51.506;11.320;2024-02-26T00:06:00;5.53;;;3.97;;
9960;SDS011;5021;51.506;11.320;2024-02-26T00:08:27;3.53;;;3.17;;
9960;SDS011;5021;51.506;11.320;2024-02-26T00:10:53;4.40;;;3.70;;
9960;SDS011;5021;51.506;11.320;2024-02-26T00:13:19;4.20;;;3.27;;
9960;SDS011;5021;51.506;11.320;2024-02-26T00:15:45;3.17;;;2.80;;
9960;SDS011;5021;51.506;11.320;2024-02-26T00:18:11;4.43;;;3.20;;
9960;SDS011;5021;51.506;11.320;2024-02-26T00:20:37;5.87;;;3.40;;
9960;SDS011;5021;51.506;11.320;2024-02-26T00:23:04;4.90;;;4.00;;
9960;SDS011;5021;51.506;11.320;2024-02-26T00:25:30;4.70;;;3.73;;
9960;SDS011;5021;51.506;11.320;2024-02-26T00:27:56;5.00;;;3.37;;
9960;SDS011;5021;51.506;11.320;2024-02-26T00:30:22;5.47;;;3.40;;
9960;SDS011;5021;51.506;11.320;2024-02-26T00:32:48;3.97;;;3.57;;
9960;SDS011;5021;51.506;11.320;2024-02-26T00:35:14;4.40;;;2.93;;
9960;SDS011;5021;51.506;11.320;2024-02-26T00:37:41;3.80;;;3.33;;
9960;SDS011;5021;51.506;11.320;2024-02-26T00:40:08;4.57;;;3.83;;
9960;SDS011;5021;51.506;11.320;2024-02-26T00:42:34;6.87;;;4.77;;
9960;SDS011;5021;51.506;11.320;2024-02-26T00:45:00;6.97;;;4.67;;
9960;SDS011;5021;51.506;11.320;2024-02-26T00:47:26;7.07;;;3.90;;
9960;SDS011;5021;51.506;11.320;2024-02-26T00:49:52;5.53;;;4.10;;
9960;SDS011;5021;51.506;11.320;2024-02-26T00:52:18;3.83;;;3.43;;
9960;SDS011;5021;51.506;11.320;2024-02-26T00:54:44;5.03;;;3.50;;
9960;SDS011;5021;51.506;11.320;2024-02-26T00:57:10;4.30;;;3.47;;
9960;SDS011;5021;51.506;11.320;2024-02-26T00:59:36;5.03;;;3.40;;
9960;SDS011;5021;51.506;11.320;2024-02-26T01:02:02;3.97;;;3.20;;
9960;SDS011;5021;51.506;11.320;2024-02-26T01:04:30;4.17;;;3.30;;
9960;SDS011;5021;51.506;11.320;2024-02-26T01:06:56;5.43;;;3.50;;
9960;SDS011;5021;51.506;11.320;2024-02-26T01:09:22;6.13;;;4.10;;
9960;SDS011;5021;51.506;11.320;2024-02-26T01:11:48;4.27;;;3.87;;
9960;SDS011;5021;51.506;11.320;2024-02-26T01:14:14;4.80;;;4.00;;
9960;SDS011;5021;51.506;11.320;2024-02-26T01:16:40;5.97;;;4.10;;
9960;SDS011;5021;51.506;11.320;2024-02-26T01:19:05;4.63;;;4.10;;
9960;SDS011;5021;51.506;11.320;2024-02-26T01:21:31;5.83;;;4.30;;
9960;SDS011;5021;51.506;11.320;2024-02-26T01:23:57;6.00;;;4.73;;
9960;SDS011;5021;51.506;11.320;2024-02-26T01:26:23;8.13;;;4.87;;
9960;SDS011;5021;51.506;11.320;2024-02-26T01:28:49;6.00;;;4.87;;
9960;SDS011;5021;51.506;11.320;2024-02-26T01:31:15;7.23;;;5.40;;
9960;SDS011;5021;51.506;11.320;2024-02-26T01:33:41;5.90;;;5.00;;
9960;SDS011;5021;51.506;11.320;2024-02-26T01:36:07;7.10;;;5.57;;
9960;SDS011;5021;51.506;11.320;2024-02-26T01:38:33;5.60;;;4.83;;
9960;SDS011;5021;51.506;11.320;2024-02-26T01:40:59;7.10;;;5.07;;
9960;SDS011;5021;51.506;11.320;2024-02-26T01:43:24;6.50;;;4.80;;
9960;SDS011;5021;51.506;11.320;2024-02-26T01:45:50;6.50;;;5.50;;
9960;SDS011;5021;51.506;11.320;2024-02-26T01:48:16;6.20;;;4.80;;
9960;SDS011;5021;51.506;11.320;2024-02-26T01:50:42;7.80;;;5.53;;
9960;SDS011;5021;51.506;11.320;2024-02-26T01:53:08;6.30;;;4.60;;
9960;SDS011;5021;51.506;11.320;2024-02-26T01:55:34;7.00;;;5.10;;
9960;SDS011;5021;51.506;11.320;2024-02-26T01:58:01;6.47;;;4.97;;
9960;SDS011;5021;51.506;11.320;2024-02-26T02:00:26;6.63;;;5.17;;
9960;SDS011;5021;51.506;11.320;2024-02-26T02:02:53;5.97;;;5.10;;
9960;SDS011;5021;51.506;11.320;2024-02-26T02:05:19;6.73;;;4.87;;
9960;SDS011;5021;51.506;11.320;2024-02-26T02:07:46;7.90;;;5.70;;
9960;SDS011;5021;51.506;11.320;2024-02-26T02:10:13;6.90;;;5.20;;
9960;SDS011;5021;51.506;11.320;2024-02-26T02:12:40;6.20;;;5.40;;
9960;SDS011;5021;51.506;11.320;2024-02-26T02:15:06;8.60;;;5.60;;
9960;SDS011;5021;51.506;11.320;2024-02-26T02:17:32;7.10;;;5.23;;
9960;SDS011;5021;51.506;11.320;2024-02-26T02:19:58;8.07;;;5.93;;
9960;SDS011;5021;51.506;11.320;2024-02-26T02:22:24;7.27;;;5.87;;
9960;SDS011;5021;51.506;11.320;2024-02-26T02:24:51;10.23;;;6.67;;
9960;SDS011;5021;51.506;11.320;2024-02-26T02:27:18;9.47;;;6.70;;
9960;SDS011;5021;51.506;11.320;2024-02-26T02:29:44;8.23;;;6.10;;
9960;SDS011;5021;51.506;11.320;2024-02-26T02:32:10;9.80;;;7.43;;
9960;SDS011;5021;51.506;11.320;2024-02-26T02:34:36;8.67;;;6.93;;
9960;SDS011;5021;51.506;11.320;2024-02-26T02:37:02;7.67;;;6.30;;
9960;SDS011;5021;51.506;11.320;2024-02-26T02:39:28;10.00;;;7.83;;
9960;SDS011;5021;51.506;11.320;2024-02-26T02:41:54;9.97;;;7.00;;
9960;SDS011;5021;51.506;11.320;2024-02-26T02:44:20;11.70;;;8.10;;
9960;SDS011;5021;51.506;11.320;2024-02-26T02:46:46;10.20;;;7.93;;
9960;SDS011;5021;51.506;11.320;2024-02-26T02:49:12;7.53;;;5.73;;
9960;SDS011;5021;51.506;11.320;2024-02-26T02:51:39;11.53;;;7.47;;
9960;SDS011;5021;51.506;11.320;2024-02-26T02:54:05;11.07;;;8.57;;
9960;SDS011;5021;51.506;11.320;2024-02-26T02:56:30;11.07;;;8.60;;
9960;SDS011;5021;51.506;11.320;2024-02-26T02:58:56;12.87;;;8.90;;
9960;SDS011;5021;51.506;11.320;2024-02-26T03:01:22;13.27;;;9.50;;
9960;SDS011;5021;51.506;11.320;2024-02-26T03:03:48;14.30;;;10.60;;
9960;SDS011;5021;51.506;11.320;2024-02-26T03:06:16;13.53;;;10.10;;
9960;SDS011;5021;51.506;11.320;2024-02-26T03:08:42;14.47;;;10.80;;
9960;SDS011;5021;51.506;11.320;2024-02-26T03:11:08;15.57;;;10.77;;
9960;SDS011;5021;51.506;11.320;2024-02-26T03:13:38;16.17;;;11.80;;
9960;SDS011;5021;51.506;11.320;2024-02-26T03:16:04;16.07;;;10.97;;
9960;SDS011;5021;51.506;11.320;2024-02-26T03:18:30;16.63;;;11.57;;
9960;SDS011;5021;51.506;11.320;2024-02-26T03:20:56;13.43;;;10.47;;
9960;SDS011;5021;51.506;11.320;2024-02-26T03:23:22;14.83;;;10.87;;
9960;SDS011;5021;51.506;11.320;2024-02-26T03:25:48;16.87;;;11.40;;
9960;SDS011;5021;51.506;11.320;2024-02-26T03:28:14;15.07;;;10.53;;
9960;SDS011;5021;51.506;11.320;2024-02-26T03:30:40;15.57;;;11.43;;
9960;SDS011;5021;51.506;11.320;2024-02-26T03:33:06;14.60;;;11.40;;
9960;SDS011;5021;51.506;11.320;2024-02-26T03:35:32;17.67;;;12.20;;
9960;SDS011;5021;51.506;11.320;2024-02-26T03:37:58;16.60;;;11.63;;
9960;SDS011;5021;51.506;11.320;2024-02-26T03:40:24;16.80;;;12.43;;
9960;SDS011;5021;51.506;11.320;2024-02-26T03:42:50;19.00;;;13.67;;
9960;SDS011;5021;51.506;11.320;2024-02-26T03:45:17;20.77;;;13.40;;
9960;SDS011;5021;51.506;11.320;2024-02-26T03:47:43;20.87;;;14.50;;
9960;SDS011;5021;51.506;11.320;2024-02-26T03:50:09;22.00;;;14.30;;
9960;SDS011;5021;51.506;11.320;2024-02-26T03:52:35;18.40;;;13.43;;
9960;SDS011;5021;51.506;11.320;2024-02-26T03:55:01;17.23;;;12.70;;
9960;SDS011;5021;51.506;11.320;2024-02-26T03:57:27;18.37;;;13.87;;
9960;SDS011;5021;51.506;11.320;2024-02-26T03:59:53;20.40;;;14.80;;
9960;SDS011;5021;51.506;11.320;2024-02-26T04:02:19;18.83;;;14.17;;
9960;SDS011;5021;51.506;11.320;2024-02-26T04:04:45;18.57;;;13.87;;
9960;SDS011;5021;51.506;11.320;2024-02-26T04:07:11;18.60;;;13.97;;
9960;SDS011;5021;51.506;11.320;2024-02-26T04:09:38;18.73;;;13.90;;
9960;SDS011;5021;51.506;11.320;2024-02-26T04:12:04;18.57;;;12.73;;
9960;SDS011;5021;51.506;11.320;2024-02-26T04:14:30;17.30;;;12.87;;
9960;SDS011;5021;51.506;11.320;2024-02-26T04:16:56;19.47;;;14.53;;
9960;SDS011;5021;51.506;11.320;2024-02-26T04:19:22;20.73;;;14.60;;
9960;SDS011;5021;51.506;11.320;2024-02-26T04:21:47;25.57;;;16.97;;
9960;SDS011;5021;51.506;11.320;2024-02-26T04:24:13;21.40;;;15.17;;
9960;SDS011;5021;51.506;11.320;2024-02-26T04:26:39;22.00;;;15.77;;
9960;SDS011;5021;51.506;11.320;2024-02-26T04:29:05;21.83;;;15.67;;
9960;SDS011;5021;51.506;11.320;2024-02-26T04:31:31;21.17;;;16.00;;
9960;SDS011;5021;51.506;11.320;2024-02-26T04:33:58;24.40;;;17.00;;
9960;SDS011;5021;51.506;11.320;2024-02-26T04:36:24;22.70;;;16.80;;
9960;SDS011;5021;51.506;11.320;2024-02-26T04:38:50;25.10;;;17.33;;
9960;SDS011;5021;51.506;11.320;2024-02-26T04:41:19;22.77;;;16.03;;
9960;SDS011;5021;51.506;11.320;2024-02-26T04:43:45;21.73;;;16.70;;
9960;SDS011;5021;51.506;11.320;2024-02-26T04:46:11;26.53;;;18.80;;
9960;SDS011;5021;51.506;11.320;2024-02-26T04:48:37;27.07;;;19.10;;
9960;SDS011;5021;51.506;11.320;2024-02-26T04:51:07;26.63;;;18.73;;
9960;SDS011;5021;51.506;11.320;2024-02-26T04:53:33;27.57;;;18.30;;
9960;SDS011;5021;51.506;11.320;2024-02-26T04:55:58;25.67;;;17.43;;
9960;SDS011;5021;51.506;11.320;2024-02-26T04:58:24;26.27;;;17.80;;
9960;SDS011;5021;51.506;11.320;2024-02-26T05:00:50;23.73;;;16.57;;
9960;SDS011;5021;51.506;11.320;2024-02-26T05:03:16;21.37;;;16.20;;
9960;SDS011;5021;51.506;11.320;2024-02-26T05:05:43;23.70;;;17.70;;
9960;SDS011;5021;51.506;11.320;2024-02-26T05:08:09;22.80;;;16.70;;
9960;SDS011;5021;51.506;11.320;2024-02-26T05:10:35;22.50;;;18.53;;
9960;SDS011;5021;51.506;11.320;2024-02-26T05:13:04;23.63;;;17.43;;
9960;SDS011;5021;51.506;11.320;2024-02-26T05:15:30;25.97;;;19.37;;
9960;SDS011;5021;51.506;11.320;2024-02-26T05:17:56;25.13;;;18.37;;
9960;SDS011;5021;51.506;11.320;2024-02-26T05:20:22;26.10;;;17.93;;
9960;SDS011;5021;51.506;11.320;2024-02-26T05:22:49;27.43;;;20.00;;
9960;SDS011;5021;51.506;11.320;2024-02-26T05:25:15;51.43;;;28.93;;
9960;SDS011;5021;51.506;11.320;2024-02-26T05:27:41;23.57;;;16.23;;
9960;SDS011;5021;51.506;11.320;2024-02-26T05:30:07;32.07;;;21.20;;
9960;SDS011;5021;51.506;11.320;2024-02-26T05:32:33;26.00;;;18.07;;
9960;SDS011;5021;51.506;11.320;2024-02-26T05:34:59;24.30;;;18.03;;
9960;SDS011;5021;51.506;11.320;2024-02-26T05:37:25;22.13;;;17.10;;
9960;SDS011;5021;51.506;11.320;2024-02-26T05:39:51;22.97;;;16.77;;
9960;SDS011;5021;51.506;11.320;2024-02-26T05:42:18;25.57;;;18.20;;
9960;SDS011;5021;51.506;11.320;2024-02-26T05:44:43;21.03;;;15.83;;
9960;SDS011;5021;51.506;11.320;2024-02-26T05:47:09;21.93;;;16.53;;
9960;SDS011;5021;51.506;11.320;2024-02-26T05:49:35;23.33;;;16.90;;
9960;SDS011;5021;51.506;11.320;2024-02-26T05:52:01;26.20;;;17.80;;
9960;SDS011;5021;51.506;11.320;2024-02-26T05:54:27;25.33;;;18.23;;
9960;SDS011;5021;51.506;11.320;2024-02-26T05:56:53;22.33;;;17.57;;
9960;SDS011;5021;51.506;11.320;2024-02-26T05:59:19;23.20;;;16.77;;
9960;SDS011;5021;51.506;11.320;2024-02-26T06:01:45;20.53;;;15.53;;
9960;SDS011;5021;51.506;11.320;2024-02-26T06:04:11;19.33;;;14.30;;
9960;SDS011;5021;51.506;11.320;2024-02-26T06:06:37;16.13;;;13.90;;
9960;SDS011;5021;51.506;11.320;2024-02-26T06:09:03;17.33;;;13.63;;
9960;SDS011;5021;51.506;11.320;2024-02-26T06:11:30;17.77;;;13.93;;
9960;SDS011;5021;51.506;11.320;2024-02-26T06:13:56;17.67;;;14.10;;
9960;SDS011;5021;51.506;11.320;2024-02-26T06:16:22;17.43;;;14.13;;
9960;SDS011;5021;51.506;11.320;2024-02-26T06:18:47;18.40;;;14.47;;
9960;SDS011;5021;51.506;11.320;2024-02-26T06:21:13;23.27;;;18.63;;
9960;SDS011;5021;51.506;11.320;2024-02-26T06:23:39;24.53;;;19.53;;
9960;SDS011;5021;51.506;11.320;2024-02-26T06:26:05;26.20;;;19.87;;
9960;SDS011;5021;51.506;11.320;2024-02-26T06:28:31;25.27;;;19.63;;
9960;SDS011;5021;51.506;11.320;2024-02-26T06:30:59;26.43;;;20.63;;
9960;SDS011;5021;51.506;11.320;2024-02-26T06:33:25;26.70;;;19.10;;
9960;SDS011;5021;51.506;11.320;2024-02-26T06:35:50;25.47;;;19.53;;
9960;SDS011;5021;51.506;11.320;2024-02-26T06:38:16;24.77;;;18.67;;
9960;SDS011;5021;51.506;11.320;2024-02-26T06:40:43;22.87;;;18.00;;
9960;SDS011;5021;51.506;11.320;2024-02-26T06:43:09;22.23;;;17.60;;
9960;SDS011;5021;51.506;11.320;2024-02-26T06:45:35;20.57;;;17.40;;
9960;SDS011;5021;51.506;11.320;2024-02-26T06:48:01;22.17;;;17.80;;
9960;SDS011;5021;51.506;11.320;2024-02-26T06:50:27;21.60;;;17.00;;
9960;SDS011;5021;51.506;11.320;2024-02-26T06:52:53;21.27;;;16.93;;
9960;SDS011;5021;51.506;11.320;2024-02-26T06:55:19;21.50;;;16.83;;
9960;SDS011;5021;51.506;11.320;2024-02-26T06:57:45;21.20;;;17.77;;
9960;SDS011;5021;51.506;11.320;2024-02-26T07:00:11;18.93;;;15.70;;
9960;SDS011;5021;51.506;11.320;2024-02-26T07:02:39;19.67;;;15.53;;
9960;SDS011;5021;51.506;11.320;2024-02-26T07:05:06;19.30;;;15.80;;
9960;SDS011;5021;51.506;11.320;2024-02-26T07:07:32;19.30;;;16.00;;
9960;SDS011;5021;51.506;11.320;2024-02-26T07:09:58;19.73;;;16.50;;
9960;SDS011;5021;51.506;11.320;2024-02-26T07:12:24;20.93;;;16.50;;
9960;SDS011;5021;51.506;11.320;2024-02-26T07:14:49;17.93;;;15.90;;
9960;SDS011;5021;51.506;11.320;2024-02-26T07:17:17;19.57;;;16.90;;
9960;SDS011;5021;51.506;11.320;2024-02-26T07:19:43;22.60;;;17.03;;
9960;SDS011;5021;51.506;11.320;2024-02-26T07:22:09;20.87;;;16.00;;
9960;SDS011;5021;51.506;11.320;2024-02-26T07:24:35;19.57;;;16.63;;
9960;SDS011;5021;51.506;11.320;2024-02-26T07:27:00;17.00;;;15.10;;
9960;SDS011;5021;51.506;11.320;2024-02-26T07:29:26;16.20;;;14.47;;
9960;SDS011;5021;51.506;11.320;2024-02-26T07:31:52;17.23;;;14.53;;
9960;SDS011;5021;51.506;11.320;2024-02-26T07:34:18;17.07;;;14.00;;
9960;SDS011;5021;51.506;11.320;2024-02-26T07:36:44;17.37;;;14.53;;
9960;SDS011;5021;51.506;11.320;2024-02-26T07:39:10;16.87;;;14.57;;
9960;SDS011;5021;51.506;11.320;2024-02-26T07:41:36;18.37;;;14.63;;
9960;SDS011;5021;51.506;11.320;2024-02-26T07:44:03;16.33;;;14.50;;
9960;SDS011;5021;51.506;11.320;2024-02-26T07:46:29;20.03;;;14.87;;
9960;SDS011;5021;51.506;11.320;2024-02-26T07:48:55;18.27;;;14.00;;
9960;SDS011;5021;51.506;11.320;2024-02-26T07:51:21;14.97;;;12.53;;
9960;SDS011;5021;51.506;11.320;2024-02-26T07:53:47;16.20;;;13.73;;
9960;SDS011;5021;51.506;11.320;2024-02-26T07:56:13;17.83;;;14.57;;
9960;SDS011;5021;51.506;11.320;2024-02-26T07:58:39;18.17;;;15.03;;
9960;SDS011;5021;51.506;11.320;2024-02-26T08:01:05;16.07;;;12.83;;
9960;SDS011;5021;51.506;11.320;2024-02-26T08:03:31;17.27;;;14.10;;
9960;SDS011;5021;51.506;11.320;2024-02-26T08:05:57;14.80;;;12.87;;
9960;SDS011;5021;51.506;11.320;2024-02-26T08:08:23;15.67;;;13.00;;
9960;SDS011;5021;51.506;11.320;2024-02-26T08:10:49;15.87;;;13.10;;
9960;SDS011;5021;51.506;11.320;2024-02-26T08:13:15;17.63;;;13.43;;
9960;SDS011;5021;51.506;11.320;2024-02-26T08:15:41;15.40;;;12.77;;
9960;SDS011;5021;51.506;11.320;2024-02-26T08:18:07;14.47;;;12.80;;
9960;SDS011;5021;51.506;11.320;2024-02-26T08:20:33;17.37;;;13.03;;
9960;SDS011;5021;51.506;11.320;2024-02-26T08:22:59;15.80;;;13.40;;
9960;SDS011;5021;51.506;11.320;2024-02-26T08:25:25;15.47;;;13.40;;
9960;SDS011;5021;51.506;11.320;2024-02-26T08:27:51;16.30;;;12.20;;
9960;SDS011;5021;51.506;11.320;2024-02-26T08:30:17;15.20;;;13.70;;
9960;SDS011;5021;51.506;11.320;2024-02-26T08:32:44;16.13;;;13.37;;
9960;SDS011;5021;51.506;11.320;2024-02-26T08:35:10;14.67;;;13.07;;
9960;SDS011;5021;51.506;11.320;2024-02-26T08:37:36;14.17;;;12.67;;
9960;SDS011;5021;51.506;11.320;2024-02-26T08:40:02;14.97;;;12.20;;
9960;SDS011;5021;51.506;11.320;2024-02-26T08:42:29;15.07;;;12.10;;
9960;SDS011;5021;51.506;11.320;2024-02-26T08:44:55;15.40;;;13.73;;
9960;SDS011;5021;51.506;11.320;2024-02-26T08:47:21;15.10;;;13.07;;
9960;SDS011;5021;51.506;11.320;2024-02-26T08:49:46;15.30;;;13.60;;
9960;SDS011;5021;51.506;11.320;2024-02-26T08:52:12;14.97;;;12.60;;
9960;SDS011;5021;51.506;11.320;2024-02-26T08:54:39;16.57;;;13.60;;
9960;SDS011;5021;51.506;11.320;2024-02-26T08:57:05;14.43;;;12.03;;
9960;SDS011;5021;51.506;11.320;2024-02-26T08:59:31;15.10;;;13.23;;
9960;SDS011;5021;51.506;11.320;2024-02-26T09:01:57;16.30;;;12.37;;
9960;SDS011;5021;51.506;11.320;2024-02-26T09:04:23;15.57;;;12.43;;
9960;SDS011;5021;51.506;11.320;2024-02-26T09:06:49;15.30;;;12.57;;
9960;SDS011;5021;51.506;11.320;2024-02-26T09:09:15;16.67;;;11.90;;
9960;SDS011;5021;51.506;11.320;2024-02-26T09:11:41;14.13;;;12.63;;
9960;SDS011;5021;51.506;11.320;2024-02-26T09:14:07;17.13;;;13.17;;
9960;SDS011;5021;51.506;11.320;2024-02-26T09:16:33;14.93;;;11.90;;
9960;SDS011;5021;51.506;11.320;2024-02-26T09:18:59;16.57;;;14.00;;
9960;SDS011;5021;51.506;11.320;2024-02-26T09:21:24;17.73;;;13.67;;
9960;SDS011;5021;51.506;11.320;2024-02-26T09:23:51;14.70;;;12.50;;
9960;SDS011;5021;51.506;11.320;2024-02-26T09:26:17;15.13;;;13.17;;
9960;SDS011;5021;51.506;11.320;2024-02-26T09:28:43;16.87;;;14.03;;
9960;SDS011;5021;51.506;11.320;2024-02-26T09:31:09;17.43;;;12.93;;
9960;SDS011;5021;51.506;11.320;2024-02-26T09:33:35;14.40;;;12.40;;
9960;SDS011;5021;51.506;11.320;2024-02-26T09:36:01;15.33;;;12.87;;
9960;SDS011;5021;51.506;11.320;2024-02-26T09:38:27;14.17;;;12.33;;
9960;SDS011;5021;51.506;11.320;2024-02-26T09:40:54;16.20;;;13.10;;
9960;SDS011;5021;51.506;11.320;2024-02-26T09:43:22;15.67;;;12.20;;
9960;SDS011;5021;51.506;11.320;2024-02-26T09:45:52;17.50;;;11.73;;
9960;SDS011;5021;51.506;11.320;2024-02-26T09:48:18;14.20;;;12.33;;
9960;SDS011;5021;51.506;11.320;2024-02-26T09:50:45;13.93;;;12.43;;
9960;SDS011;5021;51.506;11.320;2024-02-26T09:53:12;15.77;;;13.57;;
9960;SDS011;5021;51.506;11.320;2024-02-26T09:55:39;14.80;;;12.47;;
9960;SDS011;5021;51.506;11.320;2024-02-26T09:58:05;14.73;;;11.93;;
9960;SDS011;5021;51.506;11.320;2024-02-26T10:00:32;14.50;;;11.67;;
9960;SDS011;5021;51.506;11.320;2024-02-26T10:03:02;13.40;;;11.97;;
9960;SDS011;5021;51.506;11.320;2024-02-26T10:05:29;16.37;;;12.43;;
9960;SDS011;5021;51.506;11.320;2024-02-26T10:07:56;13.80;;;11.30;;
9960;SDS011;5021;51.506;11.320;2024-02-26T10:10:22;14.73;;;11.60;;
9960;SDS011;5021;51.506;11.320;2024-02-26T10:12:48;13.10;;;11.47;;
9960;SDS011;5021;51.506;11.320;2024-02-26T10:15:14;13.47;;;11.00;;
9960;SDS011;5021;51.506;11.320;2024-02-26T10:17:41;14.17;;;10.63;;
9960;SDS011;5021;51.506;11.320;2024-02-26T10:20:11;13.87;;;11.20;;
9960;SDS011;5021;51.506;11.320;2024-02-26T10:22:37;11.37;;;10.03;;
9960;SDS011;5021;51.506;11.320;2024-02-26T10:25:03;11.23;;;10.07;;
9960;SDS011;5021;51.506;11.320;2024-02-26T10:27:29;11.63;;;10.43;;
9960;SDS011;5021;51.506;11.320;2024-02-26T10:29:56;18.50;;;14.30;;
9960;SDS011;5021;51.506;11.320;2024-02-26T10:32:22;13.63;;;11.10;;
9960;SDS011;5021;51.506;11.320;2024-02-26T10:34:48;15.70;;;13.10;;
9960;SDS011;5021;51.506;11.320;2024-02-26T10:37:14;13.87;;;11.67;;
9960;SDS011;5021;51.506;11.320;2024-02-26T10:39:46;14.13;;;11.57;;
9960;SDS011;5021;51.506;11.320;2024-02-26T10:42:12;13.37;;;10.60;;
9960;SDS011;5021;51.506;11.320;2024-02-26T10:44:40;13.70;;;10.27;;
9960;SDS011;5021;51.506;11.320;2024-02-26T10:47:07;12.90;;;11.60;;
9960;SDS011;5021;51.506;11.320;2024-02-26T10:49:34;12.10;;;10.43;;
9960;SDS011;5021;51.506;11.320;2024-02-26T10:52:00;11.63;;;10.43;;
9960;SDS011;5021;51.506;11.320;2024-02-26T10:54:29;12.77;;;10.27;;
9960;SDS011;5021;51.506;11.320;2024-02-26T10:56:55;12.70;;;10.93;;
9960;SDS011;5021;51.506;11.320;2024-02-26T10:59:22;13.70;;;10.97;;
9960;SDS011;5021;51.506;11.320;2024-02-26T11:01:48;11.60;;;9.17;;
9960;SDS011;5021;51.506;11.320;2024-02-26T11:04:15;11.20;;;9.97;;
9960;SDS011;5021;51.506;11.320;2024-02-26T11:06:42;13.00;;;10.30;;
9960;SDS011;5021;51.506;11.320;2024-02-26T11:09:08;13.00;;;10.40;;
9960;SDS011;5021;51.506;11.320;2024-02-26T11:11:38;12.20;;;9.70;;
9960;SDS011;5021;51.506;11.320;2024-02-26T11:14:05;14.57;;;10.80;;
9960;SDS011;5021;51.506;11.320;2024-02-26T11:16:32;13.43;;;10.13;;
9960;SDS011;5021;51.506;11.320;2024-02-26T11:19:00;11.37;;;10.20;;
9960;SDS011;5021;51.506;11.320;2024-02-26T11:21:27;10.77;;;8.87;;
9960;SDS011;5021;51.506;11.320;2024-02-26T11:24:06;12.10;;;8.90;;
9960;SDS011;5021;51.506;11.320;2024-02-26T11:26:34;10.60;;;8.90;;
9960;SDS011;5021;51.506;11.320;2024-02-26T11:29:02;10.93;;;9.43;;
9960;SDS011;5021;51.506;11.320;2024-02-26T11:31:28;11.43;;;10.13;;
9960;SDS011;5021;51.506;11.320;2024-02-26T11:33:54;12.57;;;10.10;;
9960;SDS011;5021;51.506;11.320;2024-02-26T11:36:21;14.00;;;11.00;;
9960;SDS011;5021;51.506;11.320;2024-02-26T11:38:49;14.30;;;11.90;;
9960;SDS011;5021;51.506;11.320;2024-02-26T11:41:17;10.97;;;8.90;;
9960;SDS011;5021;51.506;11.320;2024-02-26T11:43:53;12.97;;;10.03;;
9960;SDS011;5021;51.506;11.320;2024-02-26T11:46:26;13.30;;;11.20;;
9960;SDS011;5021;51.506;11.320;2024-02-26T11:48:54;14.50;;;12.53;;
9960;SDS011;5021;51.506;11.320;2024-02-26T11:51:24;14.57;;;11.20;;
9960;SDS011;5021;51.506;11.320;2024-02-26T11:53:51;12.07;;;9.40;;
9960;SDS011;5021;51.506;11.320;2024-02-26T11:59:08;12.53;;;8.30;;
9960;SDS011;5021;51.506;11.320;2024-02-26T12:01:44;12.37;;;9.17;;
9960;SDS011;5021;51.506;11.320;2024-02-26T12:06:45;11.50;;;9.23;;
9960;SDS011;5021;51.506;11.320;2024-02-26T12:09:11;11.23;;;9.60;;
9960;SDS011;5021;51.506;11.320;2024-02-26T12:11:38;10.97;;;9.40;;
9960;SDS011;5021;51.506;11.320;2024-02-26T12:14:08;10.27;;;9.20;;
9960;SDS011;5021;51.506;11.320;2024-02-26T12:16:35;10.27;;;9.17;;
9960;SDS011;5021;51.506;11.320;2024-02-26T12:19:03;14.33;;;9.03;;
9960;SDS011;5021;51.506;11.320;2024-02-26T12:21:30;10.07;;;8.97;;
9960;SDS011;5021;51.506;11.320;2024-02-26T12:23:56;11.50;;;9.50;;
9960;SDS011;5021;51.506;11.320;2024-02-26T12:26:32;10.07;;;8.83;;
9960;SDS011;5021;51.506;11.320;2024-02-26T12:28:58;10.40;;;9.40;;
9960;SDS011;5021;51.506;11.320;2024-02-26T12:31:24;12.77;;;11.00;;
9960;SDS011;5021;51.506;11.320;2024-02-26T12:33:50;10.43;;;9.13;;
9960;SDS011;5021;51.506;11.320;2024-02-26T12:36:15;12.73;;;10.97;;
9960;SDS011;5021;51.506;11.320;2024-02-26T12:38:41;13.20;;;11.63;;
9960;SDS011;5021;51.506;11.320;2024-02-26T12:41:07;16.67;;;14.03;;
9960;SDS011;5021;51.506;11.320;2024-02-26T12:43:33;13.30;;;10.30;;
9960;SDS011;5021;51.506;11.320;2024-02-26T12:46:02;10.63;;;9.60;;
9960;SDS011;5021;51.506;11.320;2024-02-26T12:48:28;10.47;;;9.37;;
9960;SDS011;5021;51.506;11.320;2024-02-26T12:50:54;11.77;;;8.73;;
9960;SDS011;5021;51.506;11.320;2024-02-26T12:53:21;13.00;;;9.93;;
9960;SDS011;5021;51.506;11.320;2024-02-26T12:55:47;10.80;;;9.70;;
9960;SDS011;5021;51.506;11.320;2024-02-26T12:58:13;11.57;;;9.57;;
9960;SDS011;5021;51.506;11.320;2024-02-26T13:00:40;13.87;;;9.33;;
9960;SDS011;5021;51.506;11.320;2024-02-26T13:03:06;13.00;;;10.00;;
9960;SDS011;5021;51.506;11.320;2024-02-26T13:05:32;11.17;;;9.97;;
9960;SDS011;5021;51.506;11.320;2024-02-26T13:07:59;10.97;;;9.83;;
9960;SDS011;5021;51.506;11.320;2024-02-26T13:10:25;12.20;;;9.83;;
9960;SDS011;5021;51.506;11.320;2024-02-26T13:12:51;12.30;;;11.00;;
9960;SDS011;5021;51.506;11.320;2024-02-26T13:15:18;11.27;;;10.00;;
9960;SDS011;5021;51.506;11.320;2024-02-26T13:17:44;12.53;;;10.63;;
9960;SDS011;5021;51.506;11.320;2024-02-26T13:20:11;13.40;;;10.63;;
9960;SDS011;5021;51.506;11.320;2024-02-26T13:22:37;11.03;;;9.83;;
9960;SDS011;5021;51.506;11.320;2024-02-26T13:25:03;13.60;;;10.57;;
9960;SDS011;5021;51.506;11.320;2024-02-26T13:27:29;14.20;;;11.63;;
9960;SDS011;5021;51.506;11.320;2024-02-26T13:32:51;12.90;;;11.47;;
9960;SDS011;5021;51.506;11.320;2024-02-26T13:35:17;12.97;;;11.47;;
9960;SDS011;5021;51.506;11.320;2024-02-26T13:37:43;13.80;;;11.90;;
9960;SDS011;5021;51.506;11.320;2024-02-26T13:40:09;13.30;;;11.60;;
9960;SDS011;5021;51.506;11.320;2024-02-26T13:42:36;14.80;;;11.83;;
9960;SDS011;5021;51.506;11.320;2024-02-26T13:45:02;12.80;;;11.27;;
9960;SDS011;5021;51.506;11.320;2024-02-26T13:47:28;12.37;;;11.17;;
9960;SDS011;5021;51.506;11.320;2024-02-26T13:49:54;16.03;;;11.33;;
9960;SDS011;5021;51.506;11.320;2024-02-26T13:52:20;12.60;;;10.97;;
9960;SDS011;5021;51.506;11.320;2024-02-26T13:54:46;15.20;;;12.33;;
9960;SDS011;5021;51.506;11.320;2024-02-26T13:57:12;14.17;;;12.17;;
9960;SDS011;5021;51.506;11.320;2024-02-26T13:59:38;14.93;;;12.00;;
9960;SDS011;5021;51.506;11.320;2024-02-26T14:02:07;12.77;;;11.50;;
9960;SDS011;5021;51.506;11.320;2024-02-26T14:04:33;12.77;;;11.13;;
9960;SDS011;5021;51.506;11.320;2024-02-26T14:06:59;13.43;;;12.03;;
9960;SDS011;5021;51.506;11.320;2024-02-26T14:09:25;13.60;;;11.60;;
9960;SDS011;5021;51.506;11.320;2024-02-26T14:11:51;13.17;;;11.87;;
9960;SDS011;5021;51.506;11.320;2024-02-26T14:14:16;14.43;;;12.03;;
9960;SDS011;5021;51.506;11.320;2024-02-26T14:16:42;13.10;;;11.70;;
9960;SDS011;5021;51.506;11.320;2024-02-26T14:19:08;13.13;;;11.73;;
9960;SDS011;5021;51.506;11.320;2024-02-26T14:21:34;13.03;;;11.57;;
9960;SDS011;5021;51.506;11.320;2024-02-26T14:24:00;14.37;;;12.23;;
9960;SDS011;5021;51.506;11.320;2024-02-26T14:26:27;14.33;;;12.10;;
9960;SDS011;5021;51.506;11.320;2024-02-26T14:28:53;15.23;;;12.60;;
9960;SDS011;5021;51.506;11.320;2024-02-26T14:31:19;12.83;;;11.53;;
9960;SDS011;5021;51.506;11.320;2024-02-26T14:33:45;12.30;;;11.00;;
9960;SDS011;5021;51.506;11.320;2024-02-26T14:36:11;13.57;;;12.07;;
9960;SDS011;5021;51.506;11.320;2024-02-26T14:38:37;12.47;;;11.20;;
9960;SDS011;5021;51.506;11.320;2024-02-26T14:41:04;12.87;;;11.50;;
9960;SDS011;5021;51.506;11.320;2024-02-26T14:43:30;14.13;;;11.73;;